sensor_id;sensor_type;location;lat;lon;timestamp;pressure;altitude;pressure_sealevel;temperature;humidity
28683;BME280;15862;43.062;25.626;2022-10-16T00:02:16;100858.59;;;6.32;100.00
28683;BME280;15862;43.062;25.626;2022-10-16T00:04:41;100874.75;;;6.34;100.00
28683;BME280;15862;43.062;25.626;2022-10-16T00:07:07;100883.28;;;6.35;100.00
28683;BME280;15862;43.062;25.626;2022-10-16T00:09:32;100882.56;;;6.31;100.00
28683;BME280;15862;43.062;25.626;2022-10-16T00:11:57;100879.19;;;6.31;100.00
28683;BME280;15862;43.062;25.626;2022-10-16T00:14:22;100881.03;;;6.27;100.00
28683;BME280;15862;43.062;25.626;2022-10-16T00:16:48;100880.31;;;6.24;100.00
28683;BME280;15862;43.062;25.626;2022-10-16T00:19:13;100882.13;;;6.22;100.00
28683;BME280;15862;43.062;25.626;2022-10-16T00:21:38;100880.44;;;6.21;100.00
28683;BME280;15862;43.062;25.626;2022-10-16T00:24:05;100890.16;;;6.13;100.00
28683;BME280;15862;43.062;25.626;2022-10-16T00:26:31;100901.28;;;6.13;100.00
28683;BME280;15862;43.062;25.626;2022-10-16T00:28:57;100894.66;;;6.08;100.00
28683;BME280;15862;43.062;25.626;2022-10-16T00:31:22;100904.91;;;6.08;100.00
28683;BME280;15862;43.062;25.626;2022-10-16T00:33:48;100906.75;;;6.05;100.00
28683;BME280;15862;43.062;25.626;2022-10-16T00:36:15;100904.25;;;6.03;100.00
28683;BME280;15862;43.062;25.626;2022-10-16T00:38:40;100904.47;;;5.97;100.00
28683;BME280;15862;43.062;25.626;2022-10-16T00:41:06;100912.16;;;5.97;100.00
28683;BME280;15862;43.062;25.626;2022-10-16T00:43:40;100907.19;;;5.94;100.00
28683;BME280;15862;43.062;25.626;2022-10-16T00:46:09;100910.81;;;5.89;100.00
28683;BME280;15862;43.062;25.626;2022-10-16T00:48:35;100912.47;;;5.90;100.00
28683;BME280;15862;43.062;25.626;2022-10-16T00:51:01;100910.75;;;5.90;100.00
28683;BME280;15862;43.062;25.626;2022-10-16T00:53:26;100909.44;;;5.80;100.00
28683;BME280;15862;43.062;25.626;2022-10-16T00:55:52;100921.47;;;5.78;100.00
28683;BME280;15862;43.062;25.626;2022-10-16T00:58:17;100917.16;;;5.79;100.00
28683;BME280;15862;43.062;25.626;2022-10-16T01:00:42;100925.75;;;5.78;100.00
28683;BME280;15862;43.062;25.626;2022-10-16T01:03:27;100919.88;;;5.74;100.00
28683;BME280;15862;43.062;25.626;2022-10-16T01:05:57;100924.16;;;5.74;100.00
28683;BME280;15862;43.062;25.626;2022-10-16T01:08:30;100926.81;;;5.72;100.00
28683;BME280;15862;43.062;25.626;2022-10-16T01:11:06;100927.78;;;5.68;100.00
28683;BME280;15862;43.062;25.626;2022-10-16T01:13:38;100928.88;;;5.63;100.00
28683;BME280;15862;43.062;25.626;2022-10-16T01:16:06;100938.28;;;5.62;100.00
28683;BME280;15862;43.062;25.626;2022-10-16T01:21:22;100932.03;;;5.46;100.00
28683;BME280;15862;43.062;25.626;2022-10-16T01:26:31;100940.50;;;5.48;100.00
28683;BME280;15862;43.062;25.626;2022-10-16T01:29:09;100938.91;;;5.46;100.00
28683;BME280;15862;43.062;25.626;2022-10-16T01:31:39;100941.41;;;5.47;100.00
28683;BME280;15862;43.062;25.626;2022-10-16T01:34:09;100944.97;;;5.43;100.00
28683;BME280;15862;43.062;25.626;2022-10-16T01:36:36;100947.06;;;5.32;100.00
28683;BME280;15862;43.062;25.626;2022-10-16T01:39:03;100940.91;;;5.38;100.00
28683;BME280;15862;43.062;25.626;2022-10-16T01:41:34;100945.28;;;5.34;100.00
28683;BME280;15862;43.062;25.626;2022-10-16T01:44:05;100952.16;;;5.34;100.00
28683;BME280;15862;43.062;25.626;2022-10-16T01:46:32;100950.41;;;5.34;100.00
28683;BME280;15862;43.062;25.626;2022-10-16T01:48:58;100942.78;;;5.33;100.00
28683;BME280;15862;43.062;25.626;2022-10-16T01:51:26;100957.53;;;5.27;100.00
28683;BME280;15862;43.062;25.626;2022-10-16T01:53:54;100948.25;;;5.24;100.00
28683;BME280;15862;43.062;25.626;2022-10-16T01:56:20;100951.75;;;5.22;100.00
28683;BME280;15862;43.062;25.626;2022-10-16T01:58:58;100954.31;;;5.22;100.00
28683;BME280;15862;43.062;25.626;2022-10-16T02:01:26;100952.06;;;5.13;100.00
28683;BME280;15862;43.062;25.626;2022-10-16T02:03:54;100952.84;;;5.15;100.00
28683;BME280;15862;43.062;25.626;2022-10-16T02:06:22;100956.28;;;5.14;100.00
28683;BME280;15862;43.062;25.626;2022-10-16T02:08:48;100957.34;;;5.08;100.00
28683;BME280;15862;43.062;25.626;2022-10-16T02:11:14;100951.19;;;5.14;100.00
28683;BME280;15862;43.062;25.626;2022-10-16T02:13:41;100953.81;;;5.11;100.00
28683;BME280;15862;43.062;25.626;2022-10-16T02:16:10;100958.28;;;5.06;100.00
28683;BME280;15862;43.062;25.626;2022-10-16T02:18:36;100968.63;;;5.03;100.00
28683;BME280;15862;43.062;25.626;2022-10-16T02:23:32;100971.97;;;5.05;100.00
28683;BME280;15862;43.062;25.626;2022-10-16T02:26:00;100972.91;;;5.02;100.00
28683;BME280;15862;43.062;25.626;2022-10-16T02:28:30;100966.28;;;4.97;100.00
28683;BME280;15862;43.062;25.626;2022-10-16T02:31:01;100963.72;;;4.97;100.00
28683;BME280;15862;43.062;25.626;2022-10-16T02:33:28;100968.94;;;4.94;100.00
28683;BME280;15862;43.062;25.626;2022-10-16T02:35:55;100969.97;;;4.88;100.00
28683;BME280;15862;43.062;25.626;2022-10-16T02:38:22;100971.81;;;4.85;100.00
28683;BME280;15862;43.062;25.626;2022-10-16T02:40:48;100966.63;;;4.86;100.00
28683;BME280;15862;43.062;25.626;2022-10-16T02:43:13;100975.31;;;4.82;100.00
28683;BME280;15862;43.062;25.626;2022-10-16T02:45:38;100975.25;;;4.84;100.00
28683;BME280;15862;43.062;25.626;2022-10-16T02:48:04;100978.09;;;4.75;100.00
28683;BME280;15862;43.062;25.626;2022-10-16T02:50:30;100978.25;;;4.70;100.00
28683;BME280;15862;43.062;25.626;2022-10-16T02:52:55;100981.81;;;4.66;100.00
28683;BME280;15862;43.062;25.626;2022-10-16T02:55:20;100992.34;;;4.57;100.00
28683;BME280;15862;43.062;25.626;2022-10-16T02:57:45;101003.38;;;4.59;100.00
28683;BME280;15862;43.062;25.626;2022-10-16T03:00:12;101003.38;;;4.58;100.00
28683;BME280;15862;43.062;25.626;2022-10-16T03:02:37;100998.03;;;4.65;100.00
28683;BME280;15862;43.062;25.626;2022-10-16T03:05:02;101005.06;;;4.59;100.00
28683;BME280;15862;43.062;25.626;2022-10-16T03:07:28;100995.53;;;4.64;100.00
28683;BME280;15862;43.062;25.626;2022-10-16T03:09:53;101005.13;;;4.57;100.00
28683;BME280;15862;43.062;25.626;2022-10-16T03:12:19;101004.19;;;4.60;100.00
28683;BME280;15862;43.062;25.626;2022-10-16T03:14:44;101009.34;;;4.58;100.00
28683;BME280;15862;43.062;25.626;2022-10-16T03:17:10;101009.22;;;4.63;100.00
28683;BME280;15862;43.062;25.626;2022-10-16T03:19:35;101005.06;;;4.59;100.00
28683;BME280;15862;43.062;25.626;2022-10-16T03:22:01;101005.94;;;4.58;100.00
28683;BME280;15862;43.062;25.626;2022-10-16T03:24:26;101019.66;;;4.57;100.00
28683;BME280;15862;43.062;25.626;2022-10-16T03:26:51;101013.88;;;4.51;100.00
28683;BME280;15862;43.062;25.626;2022-10-16T03:29:16;101021.59;;;4.49;100.00
28683;BME280;15862;43.062;25.626;2022-10-16T03:31:42;101013.13;;;4.47;100.00
28683;BME280;15862;43.062;25.626;2022-10-16T03:34:07;101016.69;;;4.43;100.00
28683;BME280;15862;43.062;25.626;2022-10-16T03:36:32;101005.72;;;4.40;100.00
28683;BME280;15862;43.062;25.626;2022-10-16T03:38:58;101013.88;;;4.51;100.00
28683;BME280;15862;43.062;25.626;2022-10-16T03:41:23;101015.34;;;4.57;100.00
28683;BME280;15862;43.062;25.626;2022-10-16T03:43:48;101021.00;;;4.67;100.00
28683;BME280;15862;43.062;25.626;2022-10-16T03:46:14;101026.88;;;4.70;100.00
28683;BME280;15862;43.062;25.626;2022-10-16T03:48:39;101024.28;;;4.72;100.00
28683;BME280;15862;43.062;25.626;2022-10-16T03:51:05;101033.03;;;4.65;100.00
28683;BME280;15862;43.062;25.626;2022-10-16T03:53:30;101040.72;;;4.65;100.00
28683;BME280;15862;43.062;25.626;2022-10-16T03:55:55;101040.59;;;4.68;100.00
28683;BME280;15862;43.062;25.626;2022-10-16T03:58:21;101047.41;;;4.69;100.00
28683;BME280;15862;43.062;25.626;2022-10-16T04:00:46;101034.88;;;4.60;100.00
28683;BME280;15862;43.062;25.626;2022-10-16T04:03:12;101042.63;;;4.58;100.00
28683;BME280;15862;43.062;25.626;2022-10-16T04:05:37;101044.91;;;4.67;100.00
28683;BME280;15862;43.062;25.626;2022-10-16T04:08:03;101048.09;;;4.74;100.00
28683;BME280;15862;43.062;25.626;2022-10-16T04:10:28;101045.38;;;4.78;100.00
28683;BME280;15862;43.062;25.626;2022-10-16T04:12:53;101041.13;;;4.79;100.00
28683;BME280;15862;43.062;25.626;2022-10-16T04:15:22;101043.97;;;4.70;100.00
28683;BME280;15862;43.062;25.626;2022-10-16T04:17:47;101046.19;;;4.80;100.00
28683;BME280;15862;43.062;25.626;2022-10-16T04:20:13;101040.13;;;4.83;100.00
28683;BME280;15862;43.062;25.626;2022-10-16T04:22:38;101037.47;;;4.86;100.00
28683;BME280;15862;43.062;25.626;2022-10-16T04:25:04;101040.91;;;4.85;100.00
28683;BME280;15862;43.062;25.626;2022-10-16T04:27:29;101037.63;;;4.81;100.00
28683;BME280;15862;43.062;25.626;2022-10-16T04:29:56;101039.31;;;4.81;100.00
28683;BME280;15862;43.062;25.626;2022-10-16T04:32:21;101041.75;;;4.85;100.00
28683;BME280;15862;43.062;25.626;2022-10-16T04:34:47;101057.22;;;4.82;100.00
28683;BME280;15862;43.062;25.626;2022-10-16T04:37:12;101049.38;;;4.87;100.00
28683;BME280;15862;43.062;25.626;2022-10-16T04:39:37;101034.31;;;4.78;100.00
28683;BME280;15862;43.062;25.626;2022-10-16T04:42:02;101064.34;;;4.99;100.00
28683;BME280;15862;43.062;25.626;2022-10-16T04:44:28;101074.06;;;4.88;100.00
28683;BME280;15862;43.062;25.626;2022-10-16T04:46:53;101074.78;;;4.93;100.00
28683;BME280;15862;43.062;25.626;2022-10-16T04:49:18;101054.69;;;4.81;100.00
28683;BME280;15862;43.062;25.626;2022-10-16T04:51:44;101082.16;;;5.02;100.00
28683;BME280;15862;43.062;25.626;2022-10-16T04:54:09;101072.91;;;4.98;100.00
28683;BME280;15862;43.062;25.626;2022-10-16T04:56:35;101085.22;;;5.13;100.00
28683;BME280;15862;43.062;25.626;2022-10-16T04:59:07;101090.25;;;5.16;100.00
28683;BME280;15862;43.062;25.626;2022-10-16T05:01:32;101093.94;;;5.31;100.00
28683;BME280;15862;43.062;25.626;2022-10-16T05:03:58;101085.16;;;5.38;100.00
28683;BME280;15862;43.062;25.626;2022-10-16T05:06:23;101096.84;;;5.47;100.00
28683;BME280;15862;43.062;25.626;2022-10-16T05:08:48;101098.25;;;5.55;100.00
28683;BME280;15862;43.062;25.626;2022-10-16T05:11:13;101099.63;;;5.65;100.00
28683;BME280;15862;43.062;25.626;2022-10-16T05:13:39;101104.34;;;5.77;100.00
28683;BME280;15862;43.062;25.626;2022-10-16T05:16:04;101103.38;;;5.81;100.00
28683;BME280;15862;43.062;25.626;2022-10-16T05:18:29;101099.06;;;5.82;100.00
28683;BME280;15862;43.062;25.626;2022-10-16T05:20:55;101108.84;;;5.95;100.00
28683;BME280;15862;43.062;25.626;2022-10-16T05:23:20;101111.97;;;6.03;100.00
28683;BME280;15862;43.062;25.626;2022-10-16T05:25:51;101109.03;;;6.13;100.00
28683;BME280;15862;43.062;25.626;2022-10-16T05:28:17;101118.09;;;6.22;100.00
28683;BME280;15862;43.062;25.626;2022-10-16T05:30:42;101117.56;;;6.37;100.00
28683;BME280;15862;43.062;25.626;2022-10-16T05:33:07;101117.75;;;6.54;100.00
28683;BME280;15862;43.062;25.626;2022-10-16T05:35:33;101113.66;;;6.71;100.00
28683;BME280;15862;43.062;25.626;2022-10-16T05:37:58;101099.66;;;6.99;100.00
28683;BME280;15862;43.062;25.626;2022-10-16T05:40:24;101097.00;;;7.22;100.00
28683;BME280;15862;43.062;25.626;2022-10-16T05:42:49;101111.69;;;7.40;100.00
28683;BME280;15862;43.062;25.626;2022-10-16T05:45:14;101107.88;;;7.68;100.00
28683;BME280;15862;43.062;25.626;2022-10-16T05:47:40;101125.44;;;8.91;100.00
28683;BME280;15862;43.062;25.626;2022-10-16T05:50:05;101147.47;;;10.00;100.00
28683;BME280;15862;43.062;25.626;2022-10-16T05:52:31;101129.97;;;10.38;100.00
28683;BME280;15862;43.062;25.626;2022-10-16T05:54:56;101079.22;;;10.37;100.00
28683;BME280;15862;43.062;25.626;2022-10-16T05:57:21;101083.03;;;10.91;100.00
28683;BME280;15862;43.062;25.626;2022-10-16T05:59:47;101080.34;;;11.95;100.00
28683;BME280;15862;43.062;25.626;2022-10-16T06:02:12;101070.09;;;12.47;100.00
28683;BME280;15862;43.062;25.626;2022-10-16T06:04:38;101081.41;;;13.13;96.36
28683;BME280;15862;43.062;25.626;2022-10-16T06:07:03;101077.16;;;13.75;93.00
28683;BME280;15862;43.062;25.626;2022-10-16T06:09:28;101076.66;;;14.44;86.97
28683;BME280;15862;43.062;25.626;2022-10-16T06:11:54;101080.78;;;15.05;76.90
28683;BME280;15862;43.062;25.626;2022-10-16T06:14:19;101082.00;;;14.65;76.30
28683;BME280;15862;43.062;25.626;2022-10-16T06:16:44;101081.69;;;14.34;76.61
28683;BME280;15862;43.062;25.626;2022-10-16T06:19:09;101085.19;;;14.46;77.12
28683;BME280;15862;43.062;25.626;2022-10-16T06:21:35;101081.75;;;15.38;71.84
28683;BME280;15862;43.062;25.626;2022-10-16T06:24:00;101084.84;;;16.21;65.93
28683;BME280;15862;43.062;25.626;2022-10-16T06:26:26;101089.09;;;16.97;58.53
28683;BME280;15862;43.062;25.626;2022-10-16T06:28:53;101092.03;;;17.15;57.86
28683;BME280;15862;43.062;25.626;2022-10-16T06:31:19;101090.63;;;17.83;54.32
28683;BME280;15862;43.062;25.626;2022-10-16T06:33:44;101084.50;;;17.73;53.92
28683;BME280;15862;43.062;25.626;2022-10-16T06:36:14;101093.56;;;18.68;52.45
28683;BME280;15862;43.062;25.626;2022-10-16T06:38:39;101098.72;;;18.98;49.95
28683;BME280;15862;43.062;25.626;2022-10-16T06:41:05;101102.63;;;19.13;48.82
28683;BME280;15862;43.062;25.626;2022-10-16T06:43:31;101104.22;;;19.98;46.12
28683;BME280;15862;43.062;25.626;2022-10-16T06:45:57;101103.25;;;19.90;46.91
28683;BME280;15862;43.062;25.626;2022-10-16T06:48:23;101110.22;;;20.72;45.11
28683;BME280;15862;43.062;25.626;2022-10-16T06:53:47;101107.88;;;21.30;43.34
28683;BME280;15862;43.062;25.626;2022-10-16T06:58:42;101110.59;;;21.38;42.89
28683;BME280;15862;43.062;25.626;2022-10-16T07:01:08;101115.00;;;21.72;42.74
28683;BME280;15862;43.062;25.626;2022-10-16T07:03:35;101108.44;;;21.94;42.05
28683;BME280;15862;43.062;25.626;2022-10-16T07:06:01;101094.78;;;21.73;42.63
28683;BME280;15862;43.062;25.626;2022-10-16T07:08:30;101102.81;;;22.55;41.40
28683;BME280;15862;43.062;25.626;2022-10-16T07:11:02;101111.28;;;23.40;39.95
28683;BME280;15862;43.062;25.626;2022-10-16T07:13:28;101113.63;;;22.94;40.22
28683;BME280;15862;43.062;25.626;2022-10-16T07:15:53;101114.22;;;23.29;39.88
28683;BME280;15862;43.062;25.626;2022-10-16T07:18:18;101108.94;;;23.85;38.35
28683;BME280;15862;43.062;25.626;2022-10-16T07:20:44;101115.22;;;23.52;39.22
28683;BME280;15862;43.062;25.626;2022-10-16T07:23:09;101114.41;;;24.45;37.61
28683;BME280;15862;43.062;25.626;2022-10-16T07:25:34;101116.31;;;25.64;35.51
28683;BME280;15862;43.062;25.626;2022-10-16T07:28:00;101117.47;;;26.13;34.35
28683;BME280;15862;43.062;25.626;2022-10-16T07:30:25;101118.47;;;26.12;34.61
28683;BME280;15862;43.062;25.626;2022-10-16T07:32:50;101117.66;;;25.97;35.36
28683;BME280;15862;43.062;25.626;2022-10-16T07:35:15;101119.94;;;25.63;35.33
28683;BME280;15862;43.062;25.626;2022-10-16T07:37:44;101105.34;;;26.83;34.09
28683;BME280;15862;43.062;25.626;2022-10-16T07:40:09;101113.03;;;26.92;33.57
28683;BME280;15862;43.062;25.626;2022-10-16T07:42:34;101104.03;;;27.28;33.34
28683;BME280;15862;43.062;25.626;2022-10-16T07:45:00;101108.16;;;27.58;32.92
28683;BME280;15862;43.062;25.626;2022-10-16T07:47:25;101114.13;;;27.87;32.46
28683;BME280;15862;43.062;25.626;2022-10-16T07:49:50;101110.06;;;28.53;31.63
28683;BME280;15862;43.062;25.626;2022-10-16T07:52:15;101090.75;;;28.38;31.41
28683;BME280;15862;43.062;25.626;2022-10-16T07:54:41;101111.25;;;28.90;31.00
28683;BME280;15862;43.062;25.626;2022-10-16T07:57:06;101106.25;;;28.74;31.36
28683;BME280;15862;43.062;25.626;2022-10-16T07:59:31;101106.75;;;29.04;31.02
28683;BME280;15862;43.062;25.626;2022-10-16T08:01:56;101103.72;;;29.33;30.72
28683;BME280;15862;43.062;25.626;2022-10-16T08:04:22;101097.81;;;28.64;31.98
28683;BME280;15862;43.062;25.626;2022-10-16T08:06:47;101100.38;;;28.92;31.29
28683;BME280;15862;43.062;25.626;2022-10-16T08:09:12;101100.09;;;29.40;30.84
28683;BME280;15862;43.062;25.626;2022-10-16T08:11:38;101099.22;;;29.20;30.73
28683;BME280;15862;43.062;25.626;2022-10-16T08:14:03;101097.19;;;29.87;30.27
28683;BME280;15862;43.062;25.626;2022-10-16T08:16:28;101104.16;;;30.07;30.25
28683;BME280;15862;43.062;25.626;2022-10-16T08:18:53;101102.34;;;31.02;29.13
28683;BME280;15862;43.062;25.626;2022-10-16T08:21:20;101102.00;;;31.78;27.98
28683;BME280;15862;43.062;25.626;2022-10-16T08:23:45;101082.06;;;31.49;28.15
28683;BME280;15862;43.062;25.626;2022-10-16T08:26:11;101083.09;;;30.43;29.36
28683;BME280;15862;43.062;25.626;2022-10-16T08:28:37;101085.31;;;29.70;30.20
28683;BME280;15862;43.062;25.626;2022-10-16T08:31:12;101088.66;;;28.27;31.97
28683;BME280;15862;43.062;25.626;2022-10-16T08:33:38;101084.94;;;27.18;33.43
28683;BME280;15862;43.062;25.626;2022-10-16T08:36:04;101079.38;;;25.48;36.54
28683;BME280;15862;43.062;25.626;2022-10-16T08:38:30;101081.59;;;24.70;37.08
28683;BME280;15862;43.062;25.626;2022-10-16T08:41:02;101081.28;;;24.19;36.76
28683;BME280;15862;43.062;25.626;2022-10-16T08:43:43;101090.16;;;24.72;36.90
28683;BME280;15862;43.062;25.626;2022-10-16T08:46:24;101081.09;;;25.56;34.80
28683;BME280;15862;43.062;25.626;2022-10-16T08:48:55;101076.00;;;25.18;35.26
28683;BME280;15862;43.062;25.626;2022-10-16T08:51:23;101076.25;;;24.32;36.65
28683;BME280;15862;43.062;25.626;2022-10-16T08:53:51;101073.41;;;25.10;35.53
28683;BME280;15862;43.062;25.626;2022-10-16T08:56:18;101073.34;;;26.49;34.18
28683;BME280;15862;43.062;25.626;2022-10-16T08:58:44;101077.00;;;26.83;33.40
28683;BME280;15862;43.062;25.626;2022-10-16T09:01:12;101078.78;;;27.39;32.63
28683;BME280;15862;43.062;25.626;2022-10-16T09:04:00;101076.72;;;26.43;33.70
28683;BME280;15862;43.062;25.626;2022-10-16T09:11:45;101081.34;;;25.32;34.88
28683;BME280;15862;43.062;25.626;2022-10-16T09:20:26;101072.75;;;28.93;28.90
28683;BME280;15862;43.062;25.626;2022-10-16T09:22:41;101073.06;;;30.82;26.99
28683;BME280;15862;43.062;25.626;2022-10-16T09:25:13;101072.25;;;30.38;27.09
28683;BME280;15862;43.062;25.626;2022-10-16T09:27:39;101070.69;;;30.68;26.44
28683;BME280;15862;43.062;25.626;2022-10-16T09:30:15;101068.75;;;31.43;25.94
28683;BME280;15862;43.062;25.626;2022-10-16T09:32:41;101070.63;;;31.42;25.42
28683;BME280;15862;43.062;25.626;2022-10-16T09:35:11;101074.34;;;32.26;24.44
28683;BME280;15862;43.062;25.626;2022-10-16T09:37:38;101070.97;;;32.30;24.26
28683;BME280;15862;43.062;25.626;2022-10-16T09:40:05;101068.06;;;31.78;25.04
28683;BME280;15862;43.062;25.626;2022-10-16T09:42:31;101070.72;;;31.78;25.16
28683;BME280;15862;43.062;25.626;2022-10-16T09:44:57;101061.91;;;32.13;24.68
28683;BME280;15862;43.062;25.626;2022-10-16T09:47:23;101069.13;;;32.78;24.40
28683;BME280;15862;43.062;25.626;2022-10-16T09:49:54;101065.03;;;33.68;23.61
28683;BME280;15862;43.062;25.626;2022-10-16T09:52:20;101064.63;;;33.31;23.05
28683;BME280;15862;43.062;25.626;2022-10-16T09:54:52;101059.75;;;33.16;22.81
28683;BME280;15862;43.062;25.626;2022-10-16T09:57:18;101058.03;;;32.27;23.79
28683;BME280;15862;43.062;25.626;2022-10-16T09:59:47;101061.25;;;31.58;24.08
28683;BME280;15862;43.062;25.626;2022-10-16T10:02:13;101052.88;;;30.62;24.89
28683;BME280;15862;43.062;25.626;2022-10-16T10:04:52;101052.09;;;29.92;25.93
28683;BME280;15862;43.062;25.626;2022-10-16T10:07:42;101047.78;;;29.97;25.95
28683;BME280;15862;43.062;25.626;2022-10-16T10:10:18;101052.31;;;29.45;26.71
28683;BME280;15862;43.062;25.626;2022-10-16T10:12:44;101054.72;;;29.01;27.15
28683;BME280;15862;43.062;25.626;2022-10-16T10:15:10;101046.19;;;28.53;27.71
28683;BME280;15862;43.062;25.626;2022-10-16T10:17:56;101043.28;;;29.72;26.78
28683;BME280;15862;43.062;25.626;2022-10-16T10:20:29;101039.09;;;30.15;25.89
28683;BME280;15862;43.062;25.626;2022-10-16T10:22:57;101033.22;;;28.90;27.38
28683;BME280;15862;43.062;25.626;2022-10-16T10:25:25;101038.97;;;29.06;27.24
28683;BME280;15862;43.062;25.626;2022-10-16T10:27:59;101030.81;;;29.14;27.19
28683;BME280;15862;43.062;25.626;2022-10-16T10:33:20;101030.09;;;30.59;25.70
28683;BME280;15862;43.062;25.626;2022-10-16T10:41:14;101024.50;;;30.17;27.08
28683;BME280;15862;43.062;25.626;2022-10-16T10:46:32;101020.53;;;31.56;24.68
28683;BME280;15862;43.062;25.626;2022-10-16T10:51:29;101024.28;;;31.48;24.72
28683;BME280;15862;43.062;25.626;2022-10-16T11:07:18;101002.13;;;31.83;23.84
28683;BME280;15862;43.062;25.626;2022-10-16T11:09:47;100995.28;;;31.70;23.91
28683;BME280;15862;43.062;25.626;2022-10-16T11:12:33;100994.72;;;32.03;23.92
28683;BME280;15862;43.062;25.626;2022-10-16T11:17:48;100993.31;;;32.48;23.21
28683;BME280;15862;43.062;25.626;2022-10-16T11:20:20;100998.28;;;32.33;24.06
28683;BME280;15862;43.062;25.626;2022-10-16T11:23:00;100994.84;;;32.73;23.30
28683;BME280;15862;43.062;25.626;2022-10-16T11:25:28;100996.09;;;32.71;23.75
28683;BME280;15862;43.062;25.626;2022-10-16T11:27:56;101000.78;;;32.87;23.69
28683;BME280;15862;43.062;25.626;2022-10-16T11:32:51;100994.41;;;32.29;24.45
28683;BME280;15862;43.062;25.626;2022-10-16T11:35:19;100994.38;;;32.47;23.95
28683;BME280;15862;43.062;25.626;2022-10-16T11:37:46;100988.75;;;33.07;23.17
28683;BME280;15862;43.062;25.626;2022-10-16T11:40:25;100985.56;;;33.90;22.31
28683;BME280;15862;43.062;25.626;2022-10-16T11:42:58;100994.34;;;33.74;22.84
28683;BME280;15862;43.062;25.626;2022-10-16T11:45:35;100988.28;;;33.22;22.89
28683;BME280;15862;43.062;25.626;2022-10-16T11:50:49;100971.78;;;32.55;23.40
28683;BME280;15862;43.062;25.626;2022-10-16T11:53:21;100974.97;;;31.26;24.70
28683;BME280;15862;43.062;25.626;2022-10-16T11:55:48;100975.19;;;31.25;25.08
28683;BME280;15862;43.062;25.626;2022-10-16T11:59:00;100981.47;;;31.55;24.95
28683;BME280;15862;43.062;25.626;2022-10-16T12:08:27;100985.81;;;31.07;25.66
28683;BME280;15862;43.062;25.626;2022-10-16T12:10:53;100984.03;;;31.01;25.50
28683;BME280;15862;43.062;25.626;2022-10-16T12:13:33;100993.06;;;31.00;25.90
28683;BME280;15862;43.062;25.626;2022-10-16T12:18:36;100983.09;;;30.45;26.53
28683;BME280;15862;43.062;25.626;2022-10-16T12:21:01;100984.28;;;30.19;26.60
28683;BME280;15862;43.062;25.626;2022-10-16T12:23:53;100987.31;;;29.65;27.38
28683;BME280;15862;43.062;25.626;2022-10-16T12:26:27;100989.66;;;28.38;28.58
28683;BME280;15862;43.062;25.626;2022-10-16T12:28:54;100985.56;;;28.42;28.01
28683;BME280;15862;43.062;25.626;2022-10-16T12:31:20;100977.75;;;28.21;28.93
28683;BME280;15862;43.062;25.626;2022-10-16T12:34:01;100984.41;;;28.04;29.51
28683;BME280;15862;43.062;25.626;2022-10-16T12:36:36;100976.44;;;28.04;28.56
28683;BME280;15862;43.062;25.626;2022-10-16T12:39:02;100979.59;;;27.80;28.94
28683;BME280;15862;43.062;25.626;2022-10-16T12:41:28;100983.13;;;28.40;28.26
28683;BME280;15862;43.062;25.626;2022-10-16T12:43:54;100990.53;;;28.58;28.46
28683;BME280;15862;43.062;25.626;2022-10-16T12:46:22;100985.06;;;27.72;29.43
28683;BME280;15862;43.062;25.626;2022-10-16T12:48:47;100987.31;;;27.14;29.74
28683;BME280;15862;43.062;25.626;2022-10-16T12:56:43;100991.72;;;28.36;28.42
28683;BME280;15862;43.062;25.626;2022-10-16T12:59:23;100994.44;;;28.49;28.13
28683;BME280;15862;43.062;25.626;2022-10-16T13:04:31;100991.09;;;28.40;28.39
28683;BME280;15862;43.062;25.626;2022-10-16T13:09:36;100988.72;;;28.71;28.45
28683;BME280;15862;43.062;25.626;2022-10-16T13:12:09;100988.41;;;26.28;30.98
28683;BME280;15862;43.062;25.626;2022-10-16T13:19:36;100991.38;;;22.14;37.31
28683;BME280;15862;43.062;25.626;2022-10-16T13:22:11;101000.53;;;21.43;38.44
28683;BME280;15862;43.062;25.626;2022-10-16T13:24:52;100999.78;;;20.90;39.99
28683;BME280;15862;43.062;25.626;2022-10-16T13:27:23;100999.50;;;20.32;40.45
28683;BME280;15862;43.062;25.626;2022-10-16T13:29:53;100994.97;;;19.98;41.82
28683;BME280;15862;43.062;25.626;2022-10-16T13:32:20;100999.31;;;19.80;42.14
28683;BME280;15862;43.062;25.626;2022-10-16T13:34:47;101001.28;;;19.68;43.16
28683;BME280;15862;43.062;25.626;2022-10-16T13:37:17;101004.06;;;19.57;44.32
28683;BME280;15862;43.062;25.626;2022-10-16T13:39:42;101005.78;;;19.39;44.19
28683;BME280;15862;43.062;25.626;2022-10-16T13:42:22;101002.41;;;19.56;44.36
28683;BME280;15862;43.062;25.626;2022-10-16T13:44:49;101004.03;;;19.67;44.01
28683;BME280;15862;43.062;25.626;2022-10-16T13:47:23;101004.72;;;19.69;43.75
28683;BME280;15862;43.062;25.626;2022-10-16T13:52:26;101013.09;;;19.26;43.80
28683;BME280;15862;43.062;25.626;2022-10-16T13:54:51;101010.50;;;19.17;44.17
28683;BME280;15862;43.062;25.626;2022-10-16T13:57:16;101015.63;;;19.09;44.72
28683;BME280;15862;43.062;25.626;2022-10-16T13:59:42;101010.78;;;19.23;45.43
28683;BME280;15862;43.062;25.626;2022-10-16T14:02:50;101013.53;;;19.03;45.24
28683;BME280;15862;43.062;25.626;2022-10-16T14:04:56;101011.31;;;18.99;45.71
28683;BME280;15862;43.062;25.626;2022-10-16T14:07:26;101001.66;;;18.90;44.73
28683;BME280;15862;43.062;25.626;2022-10-16T14:09:52;101006.91;;;18.90;44.72
28683;BME280;15862;43.062;25.626;2022-10-16T14:12:18;101005.81;;;18.83;45.46